Time;durP1;ratioP1;P1;durP2;ratioP2;P2;SDS_P1;SDS_P2;PMS_P1;PMS_P2;Temp;Humidity;BMP_temperature;BMP_pressure;BME280_temperature;BME280_humidity;BME280_pressure;Samples;Min_cycle;Max_cycle;Signal;HPM_P1;HPM_P2
2023/07/14 04:05:46;;;;;;;1.77;1.67;;;15.30;99.90;;;;;;5412670;23;20492;-67
2023/07/14 04:08:11;;;;;;;2.40;2.20;;;15.30;99.90;;;;;;4956181;29;20463;-67
2023/07/14 04:10:37;;;;;;;1.93;1.87;;;15.40;99.90;;;;;;4946332;29;20425;-69
2023/07/14 04:13:03;;;;;;;1.43;1.43;;;15.40;99.90;;;;;;4936990;29;20169;-67
2023/07/14 04:15:28;;;;;;;1.40;1.40;;;15.50;99.90;;;;;;4936775;29;20185;-69
2023/07/14 04:17:54;;;;;;;1.90;1.80;;;15.60;99.90;;;;;;4937159;29;20189;-69
2023/07/14 04:20:19;;;;;;;1.90;1.80;;;15.80;99.90;;;;;;4952294;29;20188;-67
2023/07/14 04:22:45;;;;;;;2.07;1.97;;;16.00;99.90;;;;;;4944171;29;20659;-70
2023/07/14 04:25:11;;;;;;;2.50;2.40;;;16.20;99.90;;;;;;4935810;29;20284;-68
2023/07/14 04:27:37;;;;;;;2.27;2.17;;;16.30;99.90;;;;;;4936713;29;20611;-69
2023/07/14 04:30:04;;;;;;;2.40;2.30;;;16.50;99.90;;;;;;4937113;29;20408;-68
2023/07/14 04:32:30;;;;;;;2.47;2.27;;;16.70;99.90;;;;;;4936505;29;20433;-69
2023/07/14 04:34:56;;;;;;;1.73;1.63;;;16.90;99.90;;;;;;4935210;29;20427;-67
2023/07/14 04:37:21;;;;;;;3.93;2.00;;;17.00;99.90;;;;;;4936834;29;20776;-65
2023/07/14 04:39:47;;;;;;;1.60;1.53;;;17.10;99.90;;;;;;4936942;29;20171;-71
2023/07/14 04:42:13;;;;;;;2.00;1.90;;;17.10;99.90;;;;;;4936447;29;20184;-67
2023/07/14 04:44:39;;;;;;;1.63;1.53;;;17.10;99.90;;;;;;4935092;29;20202;-69
2023/07/14 04:47:05;;;;;;;1.93;1.60;;;17.10;99.90;;;;;;4935554;29;20671;-62
2023/07/14 04:49:30;;;;;;;1.73;1.63;;;17.10;99.90;;;;;;4935830;29;20430;-62
2023/07/14 04:51:56;;;;;;;1.77;1.67;;;17.10;99.90;;;;;;4936374;29;20485;-63
2023/07/14 04:54:23;;;;;;;1.83;1.73;;;17.20;99.90;;;;;;4935665;29;20192;-65
2023/07/14 04:56:50;;;;;;;2.00;1.87;;;17.30;99.90;;;;;;4936188;29;20191;-65
2023/07/14 04:59:16;;;;;;;3.00;1.73;;;17.50;99.90;;;;;;4935015;29;20430;-64
2023/07/14 05:01:41;;;;;;;2.07;1.97;;;17.50;99.90;;;;;;4935627;29;20511;-64
2023/07/14 05:04:07;;;;;;;2.43;2.23;;;17.70;99.90;;;;;;4935643;29;20451;-64
2023/07/14 05:06:33;;;;;;;1.80;1.70;;;17.80;99.90;;;;;;4935534;29;20228;-65
2023/07/14 05:08:58;;;;;;;1.90;1.80;;;17.90;99.90;;;;;;4935843;29;20420;-64
2023/07/14 05:11:24;;;;;;;2.40;1.87;;;18.00;99.90;;;;;;4918827;29;20240;-65
2023/07/14 05:13:51;;;;;;;1.83;1.73;;;18.00;99.90;;;;;;4935822;29;20180;-63
2023/07/14 05:16:16;;;;;;;1.20;1.20;;;18.10;99.90;;;;;;4934855;29;20239;-63
2023/07/14 05:18:42;;;;;;;1.60;1.50;;;18.20;99.90;;;;;;4935741;29;20524;-64
2023/07/14 05:21:08;;;;;;;4.20;1.67;;;18.30;99.90;;;;;;4935663;29;20188;-64
2023/07/14 05:23:34;;;;;;;1.87;1.77;;;18.30;99.90;;;;;;4935525;29;20512;-65
2023/07/14 05:26:00;;;;;;;2.00;1.80;;;18.30;99.90;;;;;;4932063;29;20537;-66
2023/07/14 05:28:26;;;;;;;2.87;2.17;;;18.30;99.90;;;;;;4917255;29;20197;-64
2023/07/14 05:30:52;;;;;;;2.17;1.97;;;18.40;99.90;;;;;;4917068;29;20928;-65
2023/07/14 05:33:19;;;;;;;1.60;1.50;;;18.50;99.90;;;;;;4916592;29;20513;-65
2023/07/14 05:35:45;;;;;;;1.60;1.50;;;18.70;99.90;;;;;;4935264;29;20448;-67
2023/07/14 05:38:11;;;;;;;8.13;1.67;;;18.90;99.90;;;;;;4935724;29;20495;-65
2023/07/14 05:40:37;;;;;;;1.40;1.30;;;19.00;99.90;;;;;;4944850;29;20490;-65
2023/07/14 05:43:03;;;;;;;1.63;1.53;;;19.00;99.90;;;;;;4938011;29;20192;-64
2023/07/14 05:45:29;;;;;;;1.77;1.67;;;19.10;99.90;;;;;;4954212;28;20441;-76
2023/07/14 05:47:55;;;;;;;1.53;1.43;;;19.20;99.90;;;;;;4920006;29;20551;-72
2023/07/14 05:50:21;;;;;;;3.60;2.50;;;19.40;99.90;;;;;;4935640;29;20421;-76
2023/07/14 05:52:46;;;;;;;1.10;1.10;;;19.60;99.90;;;;;;4936275;29;20184;-71
2023/07/14 05:55:12;;;;;;;1.47;1.40;;;19.80;99.90;;;;;;4935806;29;20196;-77
2023/07/14 05:57:38;;;;;;;2.10;1.77;;;20.10;99.90;;;;;;4936905;29;20209;-72
2023/07/14 06:00:13;;;;;;;1.67;1.57;;;20.30;99.90;;;;;;4937088;29;20481;-72
2023/07/14 06:02:43;;;;;;;2.00;1.80;;;20.50;99.90;;;;;;4934588;29;20253;-73
2023/07/14 06:05:09;;;;;;;1.77;1.67;;;20.80;99.10;;;;;;4934186;29;20461;-73
2023/07/14 06:07:36;;;;;;;1.33;1.23;;;21.00;98.60;;;;;;4937398;29;20560;-72
2023/07/14 06:10:02;;;;;;;1.37;1.27;;;21.10;97.40;;;;;;4952522;28;20757;-76
2023/07/14 06:12:27;;;;;;;1.50;1.40;;;21.10;97.00;;;;;;4939047;29;20456;-72
2023/07/14 06:14:53;;;;;;;1.07;1.07;;;21.20;97.20;;;;;;4943010;29;20241;-76
2023/07/14 06:17:19;;;;;;;2.13;1.93;;;21.20;97.20;;;;;;4938839;29;20212;-74
2023/07/14 06:19:44;;;;;;;1.30;1.20;;;21.20;97.30;;;;;;4921951;29;20648;-75
2023/07/14 06:22:10;;;;;;;1.60;1.50;;;21.10;97.70;;;;;;4938760;29;20193;-71
2023/07/14 06:24:35;;;;;;;1.40;1.30;;;21.00;98.20;;;;;;4938229;29;20213;-72
2023/07/14 06:27:03;;;;;;;2.50;1.20;;;21.00;98.20;;;;;;4938668;29;20587;-73
2023/07/14 06:29:28;;;;;;;1.90;1.30;;;21.00;98.20;;;;;;4938804;29;20596;-70
2023/07/14 06:31:54;;;;;;;1.60;1.50;;;21.00;97.60;;;;;;4929343;29;20449;-76
2023/07/14 06:34:19;;;;;;;1.10;1.10;;;20.90;98.20;;;;;;4937874;29;20256;-72
2023/07/14 06:36:45;;;;;;;1.43;1.30;;;21.00;97.60;;;;;;4937681;29;20178;-74
2023/07/14 06:39:12;;;;;;;1.90;1.53;;;21.10;97.10;;;;;;4919662;29;20187;-72
2023/07/14 06:41:37;;;;;;;1.30;1.30;;;21.20;96.50;;;;;;4936849;29;20192;-73
2023/07/14 06:44:03;;;;;;;2.47;2.27;;;21.20;96.40;;;;;;4937779;29;20492;-72
2023/07/14 06:46:31;;;;;;;1.37;1.27;;;21.20;96.60;;;;;;4932640;29;20465;-75
2023/07/14 06:48:57;;;;;;;1.60;1.50;;;21.20;96.60;;;;;;4938181;29;20200;-72
2023/07/14 06:51:24;;;;;;;1.90;1.30;;;21.30;96.70;;;;;;4938581;29;20402;-71
2023/07/14 06:53:50;;;;;;;1.10;1.10;;;21.50;96.60;;;;;;4938064;29;20409;-72
2023/07/14 06:56:16;;;;;;;1.40;1.30;;;21.60;96.00;;;;;;4920598;29;20504;-72
2023/07/14 06:58:42;;;;;;;1.57;1.47;;;21.80;95.40;;;;;;4938400;29;20396;-73
2023/07/14 07:01:07;;;;;;;1.30;1.20;;;21.90;95.00;;;;;;4938448;29;20810;-71
2023/07/14 07:03:34;;;;;;;1.40;1.30;;;22.00;94.80;;;;;;4934997;29;20327;-75
2023/07/14 07:06:00;;;;;;;2.20;2.10;;;22.10;94.40;;;;;;4937239;29;20207;-75
2023/07/14 07:08:26;;;;;;;1.90;1.80;;;22.30;94.90;;;;;;4937788;29;20530;-72
2023/07/14 07:10:53;;;;;;;1.60;1.50;;;22.40;94.90;;;;;;4937836;29;20448;-71
2023/07/14 07:13:18;;;;;;;3.50;1.57;;;22.60;94.10;;;;;;4938103;29;20405;-71
2023/07/14 07:15:44;;;;;;;1.50;1.40;;;22.70;94.20;;;;;;4937543;29;20602;-71
2023/07/14 07:18:10;;;;;;;1.47;1.37;;;22.70;93.60;;;;;;4936310;29;20189;-75
2023/07/14 07:20:37;;;;;;;1.27;1.00;;;22.80;93.50;;;;;;4935553;29;20476;-72
2023/07/14 07:23:03;;;;;;;2.20;1.60;;;22.90;93.30;;;;;;4920530;29;20268;-74
2023/07/14 07:25:29;;;;;;;1.90;1.70;;;23.00;93.40;;;;;;4937043;29;20441;-76
2023/07/14 07:27:54;;;;;;;1.40;1.30;;;23.20;93.00;;;;;;4933995;29;20210;-74
2023/07/14 07:30:20;;;;;;;2.13;1.50;;;23.40;91.80;;;;;;4945470;29;20186;-70
2023/07/14 07:32:46;;;;;;;1.40;1.30;;;23.80;91.60;;;;;;4920143;29;20200;-70
2023/07/14 07:35:13;;;;;;;1.23;1.13;;;24.20;91.10;;;;;;4920185;29;20225;-72
2023/07/14 07:37:39;;;;;;;1.00;1.00;;;24.70;90.50;;;;;;4937753;29;20465;-74
2023/07/14 07:40:06;;;;;;;2.00;1.30;;;25.30;89.20;;;;;;4937376;29;20405;-74
2023/07/14 07:42:34;;;;;;;1.10;1.10;;;25.90;86.50;;;;;;4926447;29;20797;-74
2023/07/14 07:45:00;;;;;;;1.37;1.27;;;26.60;84.50;;;;;;4937258;29;20899;-74
2023/07/14 07:47:25;;;;;;;1.60;1.50;;;27.60;82.50;;;;;;4921601;29;20519;-74
2023/07/14 07:49:51;;;;;;;1.87;1.77;;;28.50;78.60;;;;;;4925684;29;20301;-74
2023/07/14 07:52:16;;;;;;;1.00;1.00;;;29.20;76.20;;;;;;4937676;29;20201;-74
2023/07/14 07:54:42;;;;;;;1.70;1.60;;;30.00;75.70;;;;;;4935470;29;20201;-74
2023/07/14 07:57:09;;;;;;;1.30;1.30;;;30.90;70.60;;;;;;4937567;29;20185;-73
2023/07/14 07:59:35;;;;;;;1.30;1.30;;;31.80;67.60;;;;;;4936641;29;20313;-74
2023/07/14 08:02:01;;;;;;;1.60;1.50;;;32.50;64.50;;;;;;4936876;29;20396;-73
2023/07/14 08:04:27;;;;;;;1.60;1.50;;;33.40;60.10;;;;;;4936641;29;20457;-73
2023/07/14 08:06:53;;;;;;;1.00;1.00;;;34.30;58.40;;;;;;4936734;29;20209;-74
2023/07/14 08:09:19;;;;;;;1.37;1.23;;;34.60;56.00;;;;;;4936876;29;20433;-73
2023/07/14 08:11:45;;;;;;;1.50;1.40;;;34.40;55.00;;;;;;4936678;29;20436;-73
2023/07/14 08:14:13;;;;;;;1.50;1.40;;;34.60;54.60;;;;;;4934956;29;20236;-72
2023/07/14 08:16:39;;;;;;;1.93;1.47;;;34.70;54.40;;;;;;4936156;29;20707;-72
2023/07/14 08:19:04;;;;;;;1.53;1.43;;;34.70;54.50;;;;;;4913606;29;20435;-71
2023/07/14 08:21:30;;;;;;;1.30;1.30;;;35.10;53.70;;;;;;4930031;29;20260;-72
2023/07/14 08:23:56;;;;;;;1.07;1.07;;;35.50;52.50;;;;;;4935965;29;20186;-72
2023/07/14 08:26:22;;;;;;;1.27;1.27;;;36.10;52.10;;;;;;4919142;29;21034;-71
2023/07/14 08:28:48;;;;;;;1.87;1.53;;;36.50;50.70;;;;;;4936560;29;20244;-72
2023/07/14 08:31:14;;;;;;;1.60;1.50;;;36.30;50.50;;;;;;4937188;29;20621;-73
2023/07/14 08:33:44;;;;;;;1.40;1.30;;;35.90;49.60;;;;;;4936260;29;20433;-72
2023/07/14 08:36:12;;;;;;;1.50;1.40;;;35.90;50.20;;;;;;4936426;29;20201;-71
2023/07/14 08:38:38;;;;;;;1.40;1.30;;;35.70;50.20;;;;;;4936275;29;20520;-72
2023/07/14 08:41:19;;;;;;;1.40;1.30;;;34.90;50.50;;;;;;4936437;29;20435;-73
2023/07/14 08:43:53;;;;;;;1.50;1.40;;;34.70;50.50;;;;;;4922409;29;20832;-72
2023/07/14 08:46:48;;;;;;;1.40;1.30;;;34.60;51.40;;;;;;4917570;29;20404;-73
2023/07/14 08:49:22;;;;;;;1.13;1.13;;;34.40;50.10;;;;;;4917907;29;20419;-72
2023/07/14 08:51:53;;;;;;;1.10;1.10;;;34.20;50.50;;;;;;4919706;29;20456;-72
2023/07/14 08:54:22;;;;;;;1.50;1.40;;;34.00;51.40;;;;;;4932330;29;20837;-73
2023/07/14 08:56:49;;;;;;;1.43;1.33;;;34.00;51.60;;;;;;4923931;29;20608;-72
2023/07/14 08:59:39;;;;;;;1.40;1.30;;;34.00;50.40;;;;;;4937155;29;20425;-72
2023/07/14 09:02:33;;;;;;;1.60;1.50;;;33.70;49.60;;;;;;4936298;29;20516;-73
2023/07/14 09:05:06;;;;;;;1.40;1.30;;;33.40;50.30;;;;;;4936302;29;20452;-72
2023/07/14 09:07:31;;;;;;;1.20;1.13;;;33.40;50.90;;;;;;4933938;29;20482;-67
2023/07/14 09:09:57;;;;;;;1.37;1.27;;;33.30;50.20;;;;;;4934961;29;20436;-64
2023/07/14 09:12:31;;;;;;;1.17;1.17;;;33.50;51.00;;;;;;4935157;29;20395;-64
2023/07/14 09:15:02;;;;;;;1.93;1.83;;;33.70;49.60;;;;;;4934828;29;20193;-69
2023/07/14 09:17:52;;;;;;;1.20;1.10;;;33.70;49.50;;;;;;4934118;29;20436;-65
2023/07/14 09:21:03;;;;;;;1.60;1.50;;;33.10;50.20;;;;;;4935640;29;20376;-68
2023/07/14 09:24:26;;;;;;;2.03;1.60;;;32.10;51.00;;;;;;4935165;29;20719;-62
2023/07/14 09:26:57;;;;;;;1.57;1.47;;;31.30;51.50;;;;;;4860995;29;20928;-63
2023/07/14 09:29:39;;;;;;;1.33;1.23;;;30.90;52.70;;;;;;4876893;29;20393;-62
2023/07/14 09:32:05;;;;;;;1.07;1.03;;;30.50;53.00;;;;;;4903641;29;20886;-65
2023/07/14 09:34:31;;;;;;;1.47;1.00;;;30.30;53.90;;;;;;4934936;29;20437;-68
2023/07/14 09:36:57;;;;;;;1.83;1.23;;;30.30;53.40;;;;;;4917868;29;20264;-63
2023/07/14 09:39:43;;;;;;;1.40;1.30;;;30.20;54.40;;;;;;4935402;29;20177;-63
2023/07/14 09:42:34;;;;;;;1.40;1.33;;;30.10;53.70;;;;;;4935368;29;20496;-63
2023/07/14 09:45:09;;;;;;;1.00;1.00;;;29.90;54.20;;;;;;4937555;29;20408;-67
2023/07/14 09:47:35;;;;;;;2.03;1.03;;;30.00;54.60;;;;;;4938341;29;20399;-69
2023/07/14 09:50:02;;;;;;;1.27;1.20;;;30.10;54.50;;;;;;4938655;29;20468;-63
2023/07/14 09:52:29;;;;;;;1.60;1.50;;;30.20;54.80;;;;;;4938502;29;20420;-67
2023/07/14 09:54:59;;;;;;;1.43;1.33;;;30.20;53.80;;;;;;4938100;29;20412;-64
2023/07/14 09:57:28;;;;;;;1.97;1.60;;;30.20;54.20;;;;;;4936829;29;20465;-65
2023/07/14 10:00:00;;;;;;;1.50;1.40;;;30.30;54.30;;;;;;4938467;29;20416;-67
2023/07/14 10:02:29;;;;;;;1.50;1.40;;;30.20;53.60;;;;;;4938535;29;20432;-70
2023/07/14 10:05:00;;;;;;;1.40;1.30;;;30.00;54.40;;;;;;4902374;29;1041630;-65
2023/07/14 10:07:25;;;;;;;1.10;1.10;;;29.90;54.70;;;;;;4939239;29;20417;-65
2023/07/14 10:09:57;;;;;;;1.40;1.30;;;29.70;54.40;;;;;;4939685;29;20954;-63
2023/07/14 10:12:22;;;;;;;1.30;1.20;;;29.50;54.80;;;;;;4939403;29;20185;-64
2023/07/14 10:14:49;;;;;;;1.50;1.30;;;29.30;55.50;;;;;;4938464;29;20483;-69
2023/07/14 10:17:26;;;;;;;1.10;1.10;;;29.20;55.00;;;;;;4921908;29;20201;-71
2023/07/14 10:19:55;;;;;;;1.13;1.13;;;29.10;55.30;;;;;;4938964;29;20512;-69
2023/07/14 10:22:24;;;;;;;1.47;1.37;;;28.90;55.30;;;;;;4921946;29;20471;-70
2023/07/14 10:25:00;;;;;;;0.93;0.93;;;28.90;55.20;;;;;;4938793;29;20983;-67
2023/07/14 10:27:31;;;;;;;3.07;1.40;;;28.80;55.10;;;;;;4938764;29;20425;-68
2023/07/14 10:30:06;;;;;;;1.37;1.27;;;28.70;55.90;;;;;;4939171;29;20387;-68
2023/07/14 10:32:36;;;;;;;1.60;1.50;;;28.60;55.50;;;;;;4939027;29;20416;-70
2023/07/14 10:35:23;;;;;;;1.40;1.30;;;28.50;55.30;;;;;;4938555;29;20829;-69
2023/07/14 10:38:00;;;;;;;1.57;1.47;;;28.60;55.30;;;;;;4938727;29;20863;-70
2023/07/14 10:40:37;;;;;;;1.13;1.13;;;28.60;55.40;;;;;;4938846;29;20783;-68
2023/07/14 10:43:21;;;;;;;1.27;1.23;;;28.70;56.70;;;;;;4939165;29;20412;-69
2023/07/14 10:45:59;;;;;;;1.03;1.03;;;28.70;57.50;;;;;;4938754;29;20392;-69
2023/07/14 10:48:30;;;;;;;1.53;1.43;;;28.90;57.30;;;;;;4921314;29;20459;-69
2023/07/14 10:51:05;;;;;;;1.80;1.70;;;29.10;55.50;;;;;;4938389;29;20388;-69
2023/07/14 10:53:55;;;;;;;1.57;1.47;;;29.20;54.30;;;;;;4938456;29;20899;-68
2023/07/14 10:56:29;;;;;;;1.00;1.00;;;29.30;54.40;;;;;;4937216;29;20860;-68
2023/07/14 10:59:13;;;;;;;1.10;1.10;;;29.50;54.60;;;;;;4938843;29;20405;-64
2023/07/14 11:02:05;;;;;;;1.23;1.23;;;29.80;55.00;;;;;;4923709;29;20439;-65
2023/07/14 11:04:37;;;;;;;1.07;1.07;;;30.10;53.60;;;;;;4938007;29;20440;-62
2023/07/14 11:07:04;;;;;;;1.53;1.43;;;29.80;53.70;;;;;;4938280;29;20445;-64
2023/07/14 11:09:30;;;;;;;3.27;1.27;;;29.80;54.70;;;;;;4921456;29;20947;-64
2023/07/14 11:12:23;;;;;;;1.20;1.20;;;29.70;56.60;;;;;;4938147;29;20429;-63
2023/07/14 11:15:10;;;;;;;1.27;1.23;;;29.80;55.00;;;;;;4937913;29;20200;-63
2023/07/14 11:17:41;;;;;;;1.70;1.60;;;29.80;55.10;;;;;;4938279;29;20479;-64
2023/07/14 11:20:09;;;;;;;1.47;1.30;;;30.00;54.00;;;;;;4938361;29;20391;-62
2023/07/14 11:22:50;;;;;;;1.30;1.30;;;29.80;54.40;;;;;;4937796;29;20572;-65
2023/07/14 11:25:31;;;;;;;1.43;1.23;;;29.70;55.10;;;;;;4937699;29;20483;-63
2023/07/14 11:28:22;;;;;;;1.33;1.27;;;29.60;55.00;;;;;;4937591;29;20380;-64
2023/07/14 11:30:51;;;;;;;1.30;1.20;;;29.60;54.40;;;;;;4916898;29;20472;-63
2023/07/14 11:33:44;;;;;;;1.37;1.37;;;29.60;54.60;;;;;;4937536;29;20410;-65
2023/07/14 11:36:42;;;;;;;0.90;0.90;;;29.50;55.10;;;;;;4938049;29;20437;-63
2023/07/14 11:39:39;;;;;;;1.63;1.20;;;29.50;54.60;;;;;;4930002;29;20475;-63
2023/07/14 11:42:20;;;;;;;1.70;1.60;;;29.50;55.90;;;;;;4924810;29;20397;-64
2023/07/14 11:44:47;;;;;;;1.30;1.20;;;29.60;57.20;;;;;;4928082;29;20951;-63
2023/07/14 11:47:29;;;;;;;1.23;1.23;;;29.80;55.50;;;;;;4920312;29;20400;-72
2023/07/14 11:49:55;;;;;;;1.90;1.80;;;29.80;55.10;;;;;;4928688;29;20379;-64
2023/07/14 11:52:24;;;;;;;1.23;1.17;;;29.80;54.30;;;;;;4926153;29;20414;-65
2023/07/14 11:55:18;;;;;;;1.50;1.40;;;29.80;54.60;;;;;;4937198;29;20396;-66
2023/07/14 11:58:17;;;;;;;2.53;1.47;;;29.80;54.30;;;;;;4937378;29;20455;-65
2023/07/14 12:00:53;;;;;;;1.63;1.53;;;29.70;54.30;;;;;;4937728;29;20796;-63
2023/07/14 12:03:30;;;;;;;1.53;1.37;;;29.60;54.60;;;;;;4937256;29;20388;-64
2023/07/14 12:06:20;;;;;;;1.60;1.50;;;29.60;54.20;;;;;;4937003;29;20514;-65
2023/07/14 12:09:10;;;;;;;1.43;1.33;;;29.50;54.40;;;;;;4937461;29;20733;-63
2023/07/14 12:11:39;;;;;;;1.80;1.43;;;29.50;54.00;;;;;;4936985;29;20533;-66
2023/07/14 12:14:27;;;;;;;1.50;1.40;;;29.60;54.70;;;;;;4936735;29;20745;-65
2023/07/14 12:16:53;;;;;;;1.50;1.40;;;29.70;54.30;;;;;;4936648;29;20531;-67
2023/07/14 12:19:27;;;;;;;1.40;1.30;;;29.80;54.70;;;;;;4937025;29;20396;-64
2023/07/14 12:22:07;;;;;;;1.60;1.50;;;30.10;54.60;;;;;;4937064;29;20503;-65
2023/07/14 12:24:48;;;;;;;1.50;1.07;;;30.40;53.70;;;;;;4916200;29;20504;-64
2023/07/14 12:27:30;;;;;;;1.33;1.33;;;30.40;54.10;;;;;;4936242;29;20427;-64
2023/07/14 12:30:15;;;;;;;1.23;1.23;;;30.50;53.90;;;;;;4936884;29;20400;-64
2023/07/14 12:32:41;;;;;;;1.27;1.20;;;30.60;53.10;;;;;;4936672;29;20492;-65
2023/07/14 12:35:16;;;;;;;1.63;1.53;;;30.50;53.30;;;;;;4919384;29;20424;-64
2023/07/14 12:37:42;;;;;;;1.17;1.17;;;30.30;53.60;;;;;;4937074;29;20445;-64
2023/07/14 12:40:33;;;;;;;0.80;0.80;;;30.20;53.60;;;;;;4936949;29;20460;-64
2023/07/14 12:43:00;;;;;;;1.63;1.50;;;30.30;53.40;;;;;;4933449;29;20767;-64
2023/07/14 12:45:27;;;;;;;1.33;1.33;;;30.20;53.20;;;;;;4936266;29;20579;-63
2023/07/14 12:47:59;;;;;;;1.47;1.33;;;30.10;53.90;;;;;;4919276;29;20961;-65
2023/07/14 12:50:26;;;;;;;1.40;1.30;;;30.00;54.60;;;;;;4936804;29;20723;-66
2023/07/14 12:52:52;;;;;;;1.87;1.77;;;30.10;53.80;;;;;;4936223;29;20524;-63
2023/07/14 12:55:24;;;;;;;1.40;1.30;;;30.10;54.30;;;;;;4919083;29;20427;-64
2023/07/14 12:57:51;;;;;;;1.43;1.33;;;30.00;53.70;;;;;;4919293;29;20428;-65
2023/07/14 13:00:32;;;;;;;1.40;1.13;;;30.00;54.10;;;;;;4936654;29;20364;-64
2023/07/14 13:02:59;;;;;;;1.10;1.10;;;29.90;54.80;;;;;;4936384;29;20421;-63
2023/07/14 13:05:34;;;;;;;1.00;1.00;;;29.70;54.20;;;;;;4935999;29;20441;-65
2023/07/14 13:08:00;;;;;;;1.37;1.27;;;29.60;53.80;;;;;;4936493;29;20387;-65
2023/07/14 13:10:36;;;;;;;1.70;1.30;;;29.40;53.90;;;;;;4936350;29;20409;-64
2023/07/14 13:13:06;;;;;;;1.20;1.20;;;29.20;54.20;;;;;;4936160;29;20410;-65
2023/07/14 13:15:33;;;;;;;1.33;1.27;;;29.00;54.10;;;;;;4935847;29;20406;-64
2023/07/14 13:18:09;;;;;;;0.87;0.87;;;28.90;54.50;;;;;;4935689;29;21032;-65
2023/07/14 13:20:38;;;;;;;1.10;1.10;;;28.80;54.70;;;;;;4936334;29;20405;-64
2023/07/14 13:23:11;;;;;;;1.20;1.20;;;28.90;54.20;;;;;;4936027;29;20462;-65
2023/07/14 13:25:59;;;;;;;1.60;1.50;;;29.00;54.60;;;;;;4935724;29;20424;-65
2023/07/14 13:28:39;;;;;;;1.40;1.30;;;28.90;54.40;;;;;;4919291;29;20508;-64
2023/07/14 13:31:40;;;;;;;1.23;1.23;;;28.80;55.60;;;;;;4936335;29;20919;-64
2023/07/14 13:34:21;;;;;;;1.50;1.40;;;28.60;56.20;;;;;;4935729;29;20782;-64
2023/07/14 13:36:49;;;;;;;2.23;1.30;;;28.50;56.00;;;;;;4919152;29;20763;-63
2023/07/14 13:39:34;;;;;;;1.23;1.23;;;28.50;55.00;;;;;;4919142;29;20396;-63
2023/07/14 13:42:03;;;;;;;1.60;1.50;;;28.40;55.00;;;;;;4935761;29;20422;-66
2023/07/14 13:44:36;;;;;;;1.37;1.27;;;28.30;55.30;;;;;;4935674;29;20511;-65
2023/07/14 13:47:18;;;;;;;1.70;1.40;;;28.30;56.10;;;;;;4919049;29;20459;-65
2023/07/14 13:49:51;;;;;;;1.43;1.33;;;28.20;55.20;;;;;;4936041;29;20386;-66
2023/07/14 13:52:19;;;;;;;1.40;1.23;;;28.10;55.50;;;;;;4935836;29;20509;-64
2023/07/14 13:54:53;;;;;;;1.67;1.57;;;28.10;55.80;;;;;;4935605;29;20438;-63
2023/07/14 13:57:19;;;;;;;1.37;1.27;;;28.00;56.60;;;;;;4935826;29;20884;-65
2023/07/14 13:59:45;;;;;;;1.40;1.33;;;28.00;55.80;;;;;;4936088;29;20472;-64
2023/07/14 14:02:36;;;;;;;1.70;1.60;;;28.00;56.20;;;;;;4935673;29;20638;-64
2023/07/14 14:05:03;;;;;;;1.30;1.20;;;28.00;56.10;;;;;;4935274;29;20433;-65
2023/07/14 14:07:30;;;;;;;1.43;1.40;;;28.00;56.30;;;;;;4935682;29;20951;-64
2023/07/14 14:09:56;;;;;;;1.60;1.50;;;28.00;56.20;;;;;;4935640;29;20423;-65
2023/07/14 14:12:22;;;;;;;1.67;1.57;;;28.10;56.50;;;;;;4935471;29;20414;-65
2023/07/14 14:14:48;;;;;;;2.53;1.43;;;28.10;56.10;;;;;;4935353;29;20556;-66
2023/07/14 14:17:50;;;;;;;1.17;1.10;;;28.20;56.20;;;;;;4935804;29;20460;-66
2023/07/14 14:20:19;;;;;;;1.07;1.07;;;28.30;57.20;;;;;;4925996;29;20437;-65
2023/07/14 14:22:46;;;;;;;2.33;1.40;;;28.30;56.40;;;;;;4935848;29;20423;-65
2023/07/14 14:25:24;;;;;;;1.70;1.60;;;28.30;56.20;;;;;;4935164;29;20409;-67
2023/07/14 14:27:51;;;;;;;1.40;1.30;;;28.20;56.20;;;;;;4935778;29;20422;-67
2023/07/14 14:30:18;;;;;;;1.53;1.40;;;28.10;55.80;;;;;;4937013;29;20434;-65
2023/07/14 14:32:46;;;;;;;1.30;1.30;;;28.00;55.90;;;;;;4939232;29;20418;-65
2023/07/14 14:35:36;;;;;;;1.63;1.53;;;28.00;56.60;;;;;;4938616;29;20420;-65
2023/07/14 14:38:12;;;;;;;1.47;1.37;;;27.90;56.40;;;;;;4939118;29;20444;-65
2023/07/14 14:40:38;;;;;;;1.40;1.40;;;27.90;57.00;;;;;;4921703;29;20408;-65
2023/07/14 14:43:21;;;;;;;1.27;1.27;;;27.90;56.60;;;;;;4939031;29;20378;-66
2023/07/14 14:45:50;;;;;;;1.40;1.30;;;28.00;56.80;;;;;;4938637;29;20462;-66
2023/07/14 14:48:24;;;;;;;1.40;1.30;;;28.00;57.00;;;;;;4938899;29;20791;-66
2023/07/14 14:50:52;;;;;;;1.77;1.30;;;28.00;57.10;;;;;;4938574;29;20433;-66
2023/07/14 14:53:23;;;;;;;1.40;1.30;;;28.10;57.30;;;;;;4938507;29;20779;-65
2023/07/14 14:55:51;;;;;;;1.10;1.10;;;28.20;56.20;;;;;;4938473;29;20413;-66
2023/07/14 14:58:21;;;;;;;1.50;1.37;;;28.40;55.50;;;;;;4938790;29;20466;-66
2023/07/14 15:01:02;;;;;;;1.63;1.53;;;28.50;55.00;;;;;;4938518;29;20712;-66
2023/07/14 15:03:28;;;;;;;1.60;1.40;;;28.60;54.40;;;;;;4938138;29;20408;-67
2023/07/14 15:05:54;;;;;;;1.30;1.20;;;28.70;53.80;;;;;;4937987;29;20459;-66
2023/07/14 15:08:20;;;;;;;1.57;1.50;;;28.80;53.80;;;;;;4938695;29;20435;-66
2023/07/14 15:10:49;;;;;;;1.33;1.23;;;28.70;53.50;;;;;;4938352;29;20385;-67
2023/07/14 15:13:21;;;;;;;1.60;1.50;;;28.80;53.90;;;;;;4938648;29;20375;-66
2023/07/14 15:15:50;;;;;;;2.00;1.20;;;28.80;54.30;;;;;;4937955;29;20905;-65
2023/07/14 15:18:16;;;;;;;1.07;1.07;;;28.80;54.30;;;;;;4938111;29;20446;-66
2023/07/14 15:20:42;;;;;;;1.80;1.70;;;28.70;53.80;;;;;;4938249;29;20402;-65
2023/07/14 15:23:10;;;;;;;3.13;1.20;;;28.80;53.90;;;;;;4938133;29;20387;-65
2023/07/14 15:25:37;;;;;;;1.10;1.00;;;28.80;54.20;;;;;;4937483;29;20433;-65
2023/07/14 15:28:04;;;;;;;1.23;1.20;;;28.80;54.30;;;;;;4937830;29;20775;-66
2023/07/14 15:30:34;;;;;;;1.30;1.20;;;28.80;54.60;;;;;;4937886;29;20977;-65
2023/07/14 15:33:03;;;;;;;1.23;1.23;;;28.80;54.50;;;;;;4938175;29;20395;-66
2023/07/14 15:35:31;;;;;;;1.10;1.10;;;28.80;53.80;;;;;;4937571;29;20408;-66
2023/07/14 15:37:57;;;;;;;1.00;1.00;;;28.80;54.20;;;;;;4937427;29;20432;-65
2023/07/14 15:40:26;;;;;;;1.50;1.40;;;28.90;53.90;;;;;;4938090;29;20511;-65
2023/07/14 15:42:53;;;;;;;0.97;0.97;;;28.80;54.00;;;;;;4937353;29;20455;-66
2023/07/14 15:45:26;;;;;;;1.43;1.33;;;28.80;54.70;;;;;;4937399;29;20453;-66
2023/07/14 15:47:53;;;;;;;1.40;1.30;;;28.80;54.60;;;;;;4937524;29;20484;-65
2023/07/14 15:50:24;;;;;;;1.40;1.30;;;28.70;54.40;;;;;;4937790;29;20413;-65
2023/07/14 15:52:56;;;;;;;1.60;1.50;;;28.70;54.80;;;;;;4937929;29;20883;-66
2023/07/14 15:55:30;;;;;;;1.33;1.33;;;28.60;55.10;;;;;;4937272;29;20406;-66
2023/07/14 15:57:56;;;;;;;1.50;1.40;;;28.50;54.60;;;;;;4937334;29;20460;-66
2023/07/14 16:00:22;;;;;;;1.93;1.73;;;28.40;54.60;;;;;;4937661;29;20434;-66
2023/07/14 16:02:49;;;;;;;1.70;1.60;;;28.40;55.20;;;;;;4937717;29;20447;-66
2023/07/14 16:05:16;;;;;;;1.47;1.40;;;28.30;55.10;;;;;;4936992;29;20261;-66
2023/07/14 16:07:42;;;;;;;1.30;1.20;;;28.30;55.40;;;;;;4937420;29;20432;-67
2023/07/14 16:10:15;;;;;;;1.30;1.20;;;28.30;55.70;;;;;;4937673;29;20403;-65
2023/07/14 16:12:41;;;;;;;2.90;2.10;;;28.30;56.10;;;;;;4937124;29;20425;-66
2023/07/14 16:15:33;;;;;;;1.93;1.27;;;28.40;56.10;;;;;;4936889;29;20424;-67
2023/07/14 16:17:59;;;;;;;3.10;1.50;;;28.50;55.90;;;;;;4934157;29;20470;-67
2023/07/14 16:20:28;;;;;;;1.70;1.60;;;28.60;56.10;;;;;;4937301;29;20382;-65
2023/07/14 16:22:56;;;;;;;1.83;1.47;;;28.70;56.00;;;;;;4936193;29;20233;-64
2023/07/14 16:25:23;;;;;;;1.50;1.40;;;28.80;55.60;;;;;;4936576;29;20427;-65
2023/07/14 16:27:48;;;;;;;1.33;1.27;;;28.90;55.60;;;;;;4937115;29;20402;-64
2023/07/14 16:30:19;;;;;;;1.70;1.30;;;28.80;55.50;;;;;;4937362;29;20384;-65
2023/07/14 16:32:46;;;;;;;1.23;1.23;;;28.80;55.40;;;;;;4936423;29;20597;-64
2023/07/14 16:35:13;;;;;;;1.33;1.23;;;28.80;55.40;;;;;;4919361;29;20955;-66
2023/07/14 16:37:41;;;;;;;1.70;1.60;;;28.70;55.50;;;;;;4937168;29;21001;-66
2023/07/14 16:40:31;;;;;;;1.40;1.37;;;28.80;56.20;;;;;;4919855;29;20473;-66
2023/07/14 16:42:59;;;;;;;1.30;1.30;;;28.70;56.30;;;;;;4919282;29;20405;-66
2023/07/14 16:45:27;;;;;;;1.60;1.50;;;28.70;56.50;;;;;;4936391;29;20425;-65
2023/07/14 16:47:54;;;;;;;1.33;1.23;;;28.70;56.30;;;;;;4936878;29;20765;-67
2023/07/14 16:50:21;;;;;;;1.63;1.53;;;28.70;56.50;;;;;;4936611;29;20412;-66
2023/07/14 16:52:48;;;;;;;2.10;1.90;;;28.70;56.50;;;;;;4935697;29;20403;-64
2023/07/14 16:55:24;;;;;;;1.80;1.70;;;28.60;57.30;;;;;;4935759;29;20436;-65
2023/07/14 16:57:57;;;;;;;1.87;1.77;;;28.60;58.00;;;;;;4936643;29;20811;-66
2023/07/14 17:00:31;;;;;;;1.37;1.37;;;28.50;58.20;;;;;;4936632;29;20923;-64
2023/07/14 17:03:30;;;;;;;1.63;1.53;;;28.50;57.90;;;;;;4936024;29;20859;-66
2023/07/14 17:05:57;;;;;;;2.87;1.83;;;28.50;58.20;;;;;;4936122;29;20417;-64
2023/07/14 17:08:33;;;;;;;1.70;1.60;;;28.40;58.50;;;;;;4936486;29;20784;-64
2023/07/14 17:11:01;;;;;;;1.77;1.60;;;28.40;58.50;;;;;;4919594;29;20417;-65
2023/07/14 17:13:28;;;;;;;1.43;1.33;;;28.30;58.20;;;;;;4935772;29;20478;-66